createdAt,value
2022-08-07T00:00:31.708Z,12.70
2022-08-07T00:01:44.521Z,12.77
2022-08-07T00:02:36.710Z,12.81
2022-08-07T00:03:36.650Z,12.79
2022-08-07T00:04:31.510Z,12.85
2022-08-07T00:05:31.589Z,12.81
2022-08-07T00:06:33.496Z,12.88
2022-08-07T00:07:40.843Z,12.89
2022-08-07T00:08:33.145Z,12.92
2022-08-07T00:09:34.323Z,12.85
2022-08-07T00:10:33.929Z,12.87
2022-08-07T00:11:33.946Z,12.88
2022-08-07T00:12:33.767Z,12.77
2022-08-07T00:13:32.985Z,12.93
2022-08-07T00:14:33.119Z,12.87
2022-08-07T00:15:36.119Z,12.88
2022-08-07T00:16:34.497Z,12.81
2022-08-07T00:17:35.258Z,12.81
2022-08-07T00:18:33.855Z,12.81
2022-08-07T00:20:01.088Z,12.79
2022-08-07T00:20:35.441Z,12.87
2022-08-07T00:21:56.269Z,12.79
2022-08-07T00:22:35.768Z,12.71
2022-08-07T00:23:35.441Z,12.78
2022-08-07T00:24:35.435Z,12.78
2022-08-07T00:25:37.458Z,12.69
2022-08-07T00:26:48.807Z,12.66
2022-08-07T00:27:52.425Z,12.77
2022-08-07T00:28:45.695Z,12.75
2022-08-07T00:29:37.436Z,12.74
2022-08-07T00:30:35.813Z,12.60
2022-08-07T00:31:38.060Z,12.56
2022-08-07T00:32:37.145Z,12.54
2022-08-07T00:33:36.398Z,12.62
2022-08-07T00:34:37.443Z,12.52
2022-08-07T00:35:36.842Z,12.42
2022-08-07T00:36:38.577Z,12.44
2022-08-07T00:37:47.731Z,12.44
2022-08-07T00:38:39.146Z,12.45
2022-08-07T00:39:37.661Z,12.48
2022-08-07T00:40:40.413Z,12.34
2022-08-07T00:41:53.043Z,12.31
2022-08-07T00:42:39.062Z,12.20
2022-08-07T00:44:00.198Z,12.33
2022-08-07T00:44:41.260Z,12.41
2022-08-07T00:45:38.633Z,12.30
2022-08-07T00:46:38.736Z,12.31
2022-08-07T00:48:09.912Z,12.23
2022-08-07T00:48:42.201Z,12.31
2022-08-07T00:50:21.367Z,12.33
2022-08-07T00:50:46.355Z,12.37
2022-08-07T00:51:58.236Z,12.30
2022-08-07T00:52:40.618Z,12.31
2022-08-07T00:53:50.182Z,12.34
2022-08-07T00:54:40.974Z,12.26
2022-08-07T00:56:03.403Z,12.20
2022-08-07T00:56:41.342Z,12.19
2022-08-07T00:57:44.549Z,12.20
2022-08-07T00:58:41.699Z,12.06
2022-08-07T00:59:40.953Z,12.02
2022-08-07T01:00:53.420Z,11.97
2022-08-07T01:01:44.606Z,11.96
2022-08-07T01:02:41.439Z,11.97
2022-08-07T01:03:57.350Z,11.99
2022-08-07T01:04:43.123Z,12.05
2022-08-07T01:05:42.946Z,11.97
2022-08-07T01:06:43.179Z,12.04
2022-08-07T01:07:42.297Z,11.87
2022-08-07T01:08:51.563Z,11.80
2022-08-07T01:10:05.812Z,11.83
2022-08-07T01:10:47.686Z,11.97
2022-08-07T01:12:09.829Z,11.97
2022-08-07T01:12:53.881Z,11.90
2022-08-07T01:13:46.729Z,12.05
2022-08-07T01:14:45.449Z,11.97
2022-08-07T01:16:05.111Z,11.93
2022-08-07T01:16:47.273Z,11.99
2022-08-07T01:17:44.462Z,12.01
2022-08-07T01:18:44.949Z,11.90
2022-08-07T01:19:44.997Z,11.85
2022-08-07T01:20:45.538Z,11.96
2022-08-07T01:21:45.961Z,11.93
2022-08-07T01:22:46.897Z,11.83
2022-08-07T01:23:46.677Z,11.85
2022-08-07T01:24:47.550Z,11.75
2022-08-07T01:25:55.244Z,11.82
2022-08-07T01:26:51.555Z,11.82
2022-08-07T01:27:51.110Z,11.77
2022-08-07T01:28:48.492Z,11.80
2022-08-07T01:29:46.175Z,11.80
2022-08-07T01:30:46.332Z,11.72
2022-08-07T01:31:48.669Z,11.65
2022-08-07T01:32:47.483Z,11.74
2022-08-07T01:33:55.461Z,11.77
2022-08-07T01:34:49.191Z,11.78
2022-08-07T01:35:53.629Z,11.77
2022-08-07T01:36:52.644Z,11.77
2022-08-07T01:37:48.519Z,11.71
2022-08-07T01:38:47.718Z,11.64
2022-08-07T01:39:48.500Z,11.67
2022-08-07T01:40:48.958Z,11.64
2022-08-07T01:41:55.246Z,11.56
2022-08-07T01:42:57.350Z,11.62
2022-08-07T01:43:49.543Z,11.65
2022-08-07T01:44:48.663Z,11.64
2022-08-07T01:45:49.477Z,11.52
2022-08-07T01:46:49.980Z,11.49
2022-08-07T01:48:19.897Z,11.49
2022-08-07T01:48:50.958Z,11.52
2022-08-07T01:49:49.448Z,11.50
2022-08-07T01:50:50.618Z,11.41
2022-08-07T01:52:02.440Z,11.39
2022-08-07T01:52:54.962Z,11.47
2022-08-07T01:54:09.999Z,11.46
2022-08-07T01:54:51.245Z,11.50
2022-08-07T01:55:50.389Z,11.49
2022-08-07T01:56:51.461Z,11.46
2022-08-07T01:58:05.900Z,11.50
2022-08-07T01:58:51.901Z,11.46
2022-08-07T01:59:51.080Z,11.43
2022-08-07T02:00:52.046Z,11.39
2022-08-07T02:02:00.035Z,11.43
2022-08-07T02:03:18.387Z,11.35
2022-08-07T02:03:53.494Z,11.36
2022-08-07T02:04:56.300Z,11.34
2022-08-07T02:06:01.015Z,11.31
2022-08-07T02:06:53.259Z,11.34
2022-08-07T02:07:52.633Z,11.35
2022-08-07T02:08:54.187Z,11.27
2022-08-07T02:09:58.563Z,11.31
2022-08-07T02:10:57.875Z,11.24
2022-08-07T02:12:03.572Z,11.31
2022-08-07T02:12:54.324Z,11.25
2022-08-07T02:13:58.312Z,11.20
2022-08-07T02:14:54.594Z,11.28
2022-08-07T02:15:54.001Z,11.31
2022-08-07T02:16:54.969Z,11.25
2022-08-07T02:17:54.210Z,11.14
2022-08-07T02:18:54.407Z,11.20
2022-08-07T02:20:07.846Z,11.10
2022-08-07T02:20:55.814Z,11.20
2022-08-07T02:21:55.902Z,11.25
2022-08-07T02:22:55.320Z,11.16
2022-08-07T02:23:55.144Z,11.13
2022-08-07T02:24:55.973Z,11.10
2022-08-07T02:26:30.570Z,11.10
2022-08-07T02:26:57.467Z,11.03
2022-08-07T02:27:55.847Z,11.02
2022-08-07T02:28:56.098Z,11.09
2022-08-07T02:29:56.297Z,11.02
2022-08-07T02:30:56.443Z,11.03
2022-08-07T02:31:56.633Z,11.01
2022-08-07T02:33:07.258Z,11.06
2022-08-07T02:34:02.809Z,10.96
2022-08-07T02:35:00.730Z,11.07
2022-08-07T02:36:30.864Z,11.14
2022-08-07T02:36:59.993Z,11.17
2022-08-07T02:37:57.808Z,11.03
2022-08-07T02:38:57.962Z,10.98
2022-08-07T02:40:02.475Z,11.01
2022-08-07T02:40:59.476Z,11.16
2022-08-07T02:41:59.514Z,11.06
2022-08-07T02:42:58.875Z,11.06
2022-08-07T02:43:59.044Z,11.03
2022-08-07T02:44:59.187Z,11.03
2022-08-07T02:46:01.908Z,10.99
2022-08-07T02:47:00.841Z,11.01
2022-08-07T02:48:01.866Z,10.94
2022-08-07T02:48:59.903Z,10.92
2022-08-07T02:50:00.612Z,10.84
2022-08-07T02:51:00.193Z,10.86
2022-08-07T02:52:00.335Z,10.83
2022-08-07T02:53:00.811Z,10.88
2022-08-07T02:54:01.479Z,10.95
2022-08-07T02:55:00.956Z,10.88
2022-08-07T02:56:03.236Z,10.91
2022-08-07T02:57:01.979Z,10.71
2022-08-07T02:58:01.348Z,10.80
2022-08-07T02:59:01.509Z,10.78
2022-08-07T03:00:04.870Z,10.76
2022-08-07T03:01:03.139Z,10.80
2022-08-07T03:02:02.543Z,10.77
2022-08-07T03:03:06.072Z,10.88
2022-08-07T03:04:03.517Z,10.83
2022-08-07T03:05:05.044Z,10.81
2022-08-07T03:06:02.763Z,10.77
2022-08-07T03:07:07.149Z,10.84
2022-08-07T03:08:07.166Z,10.86
2022-08-07T03:09:04.330Z,10.86
2022-08-07T03:10:03.547Z,10.88
2022-08-07T03:11:03.789Z,10.84
2022-08-07T03:12:03.961Z,10.88
2022-08-07T03:13:04.493Z,10.88
2022-08-07T03:14:04.358Z,10.74
2022-08-07T03:15:07.963Z,10.88
2022-08-07T03:16:05.481Z,10.88
2022-08-07T03:17:04.874Z,10.81
2022-08-07T03:18:05.058Z,10.74
2022-08-07T03:19:06.221Z,10.76
2022-08-07T03:20:05.349Z,10.81
2022-08-07T03:21:08.655Z,10.73
2022-08-07T03:22:05.613Z,10.80
2022-08-07T03:23:06.785Z,10.77
2022-08-07T03:24:20.659Z,10.66
2022-08-07T03:25:07.088Z,10.74
2022-08-07T03:26:06.263Z,10.77
2022-08-07T03:27:08.869Z,10.81
2022-08-07T03:28:09.556Z,10.70
2022-08-07T03:29:11.191Z,10.70
2022-08-07T03:30:07.895Z,10.71
2022-08-07T03:31:07.022Z,10.73
2022-08-07T03:32:07.222Z,10.71
2022-08-07T03:33:08.654Z,10.63
2022-08-07T03:34:07.578Z,10.74
2022-08-07T03:35:17.855Z,10.66
2022-08-07T03:36:10.493Z,10.58
2022-08-07T03:37:12.273Z,10.52
2022-08-07T03:38:08.332Z,10.55
2022-08-07T03:39:09.003Z,10.52
2022-08-07T03:40:16.738Z,10.62
2022-08-07T03:41:10.436Z,10.55
2022-08-07T03:42:09.498Z,10.62
2022-08-07T03:43:13.815Z,10.63
2022-08-07T03:44:10.384Z,10.51
2022-08-07T03:45:10.489Z,10.56
2022-08-07T03:46:18.196Z,10.56
2022-08-07T03:47:14.512Z,10.60
2022-08-07T03:48:11.376Z,10.58
2022-08-07T03:49:10.987Z,10.47
2022-08-07T03:50:11.320Z,10.46
2022-08-07T03:51:10.467Z,10.58
2022-08-07T03:52:22.276Z,10.59
2022-08-07T03:53:11.860Z,10.51
2022-08-07T03:54:36.324Z,10.60
2022-08-07T03:55:12.349Z,10.56
2022-08-07T03:56:13.622Z,10.55
2022-08-07T03:57:11.672Z,10.59
2022-08-07T03:59:04.806Z,10.44
2022-08-07T03:59:13.681Z,10.53
2022-08-07T04:00:12.372Z,10.51
2022-08-07T04:01:13.949Z,10.63
2022-08-07T04:02:13.499Z,10.52
2022-08-07T04:03:14.076Z,10.51
2022-08-07T04:04:17.097Z,10.52
2022-08-07T04:05:13.355Z,10.47
2022-08-07T04:06:38.419Z,10.47
2022-08-07T04:07:17.392Z,10.44
2022-08-07T04:08:16.266Z,10.52
2022-08-07T04:09:15.737Z,10.55
2022-08-07T04:10:15.650Z,10.44
2022-08-07T04:12:23.604Z,10.51
2022-08-07T04:12:23.897Z,10.55
2022-08-07T04:13:16.497Z,10.59
2022-08-07T04:14:37.631Z,10.58
2022-08-07T04:15:17.017Z,10.62
2022-08-07T04:16:15.241Z,10.52
2022-08-07T04:17:20.223Z,10.46
2022-08-07T04:18:56.976Z,10.58
2022-08-07T04:19:17.589Z,10.53
2022-08-07T04:20:16.151Z,10.47
2022-08-07T04:21:16.563Z,10.56
2022-08-07T04:22:17.791Z,10.56
2022-08-07T04:23:19.197Z,10.56
2022-08-07T04:24:34.215Z,10.58
2022-08-07T04:25:18.997Z,10.59
2022-08-07T04:26:21.934Z,10.46
2022-08-07T04:27:20.509Z,10.58
2022-08-07T04:28:18.614Z,10.63
2022-08-07T04:29:17.780Z,10.55
2022-08-07T04:30:21.341Z,10.56
2022-08-07T04:31:20.031Z,10.62
2022-08-07T04:32:27.205Z,10.62
2022-08-07T04:33:20.012Z,10.62
2022-08-07T04:34:27.399Z,10.66
2022-08-07T04:35:20.514Z,10.63
2022-08-07T04:36:26.020Z,10.68
2022-08-07T04:37:20.740Z,10.62
2022-08-07T04:38:19.521Z,10.76
2022-08-07T04:39:25.507Z,10.77
2022-08-07T04:40:21.806Z,10.73
2022-08-07T04:41:22.002Z,10.76
2022-08-07T04:42:20.198Z,10.83
2022-08-07T04:43:20.360Z,10.73
2022-08-07T04:44:20.497Z,10.78
2022-08-07T04:45:57.733Z,10.73
2022-08-07T04:46:26.065Z,10.78
2022-08-07T04:47:56.709Z,10.88
2022-08-07T04:48:22.291Z,10.86
2022-08-07T04:49:25.592Z,10.86
2022-08-07T04:50:22.276Z,10.92
2022-08-07T04:51:21.663Z,10.94
2022-08-07T04:52:25.146Z,11.01
2022-08-07T04:53:40.201Z,11.02
2022-08-07T04:54:29.915Z,11.06
2022-08-07T04:58:12.969Z,11.06
2022-08-07T04:58:14.294Z,11.01
2022-08-07T04:58:14.864Z,11.13
2022-08-07T04:58:49.804Z,11.09
2022-08-07T05:00:11.221Z,11.14
2022-08-07T05:00:30.028Z,11.19
2022-08-07T05:01:30.198Z,11.28
2022-08-07T05:02:24.836Z,11.24
2022-08-07T05:03:59.957Z,11.31
2022-08-07T05:04:26.375Z,11.29
2022-08-07T05:05:53.292Z,11.35
2022-08-07T05:06:28.152Z,11.46
2022-08-07T05:07:30.391Z,11.59
2022-08-07T05:08:59.307Z,11.80
2022-08-07T05:09:43.170Z,12.13
2022-08-07T05:10:26.287Z,12.33
2022-08-07T05:11:26.329Z,12.38
2022-08-07T05:12:27.732Z,12.34
2022-08-07T05:14:52.508Z,12.45
2022-08-07T05:14:54.136Z,12.41
2022-08-07T05:15:28.015Z,12.34
2022-08-07T05:16:27.039Z,12.26
2022-08-07T05:17:52.658Z,12.38
2022-08-07T05:18:29.598Z,12.21
2022-08-07T05:19:44.062Z,12.26
2022-08-07T05:20:28.023Z,12.24
2022-08-07T05:22:00.856Z,12.21
2022-08-07T05:22:29.017Z,12.31
2022-08-07T05:23:29.124Z,12.41
2022-08-07T05:24:30.375Z,12.46
2022-08-07T05:26:10.938Z,12.44
2022-08-07T05:26:28.055Z,12.48
2022-08-07T05:28:16.751Z,12.70
2022-08-07T05:28:29.707Z,12.60
2022-08-07T05:29:39.000Z,12.66
2022-08-07T05:30:32.406Z,12.74
2022-08-07T05:31:34.599Z,12.81
2022-08-07T05:32:30.164Z,12.84
2022-08-07T05:33:29.327Z,12.97
2022-08-07T05:34:29.503Z,12.92
2022-08-07T05:35:33.248Z,12.99
2022-08-07T05:36:30.384Z,12.96
2022-08-07T05:37:40.918Z,13.00
2022-08-07T05:39:00.225Z,13.07
2022-08-07T05:40:05.098Z,13.02
2022-08-07T05:40:31.675Z,13.04
2022-08-07T05:42:00.648Z,13.22
2022-08-07T05:42:33.736Z,13.32
2022-08-07T05:43:49.622Z,13.40
2022-08-07T05:44:33.018Z,13.46
2022-08-07T05:45:47.293Z,13.43
2022-08-07T05:46:33.517Z,13.62
2022-08-07T05:47:38.692Z,13.59
2022-08-07T05:48:33.083Z,13.67
2022-08-07T05:49:40.485Z,13.65
2022-08-07T05:50:33.549Z,13.77
2022-08-07T05:51:33.521Z,13.77
2022-08-07T05:52:33.889Z,13.76
2022-08-07T05:54:14.150Z,13.88
2022-08-07T05:54:53.575Z,13.91
2022-08-07T05:56:03.511Z,14.02
2022-08-07T05:56:35.519Z,14.13
2022-08-07T05:57:34.694Z,14.19
2022-08-07T05:58:36.695Z,14.19
2022-08-07T05:59:46.556Z,14.35
2022-08-07T06:00:35.353Z,14.31
2022-08-07T06:01:35.804Z,14.49
2022-08-07T06:02:34.746Z,14.50
2022-08-07T06:03:56.438Z,14.52
2022-08-07T06:04:35.993Z,14.56
2022-08-07T06:05:35.192Z,14.78
2022-08-07T06:06:36.033Z,14.67
2022-08-07T06:08:13.648Z,14.80
2022-08-07T06:08:39.238Z,14.99
2022-08-07T06:10:03.148Z,15.03
2022-08-07T06:10:37.119Z,15.09
2022-08-07T06:11:36.538Z,15.11
2022-08-07T06:12:36.560Z,15.27
2022-08-07T06:14:10.461Z,15.33
2022-08-07T06:14:37.862Z,15.43
2022-08-07T06:15:42.226Z,15.56
2022-08-07T06:16:38.120Z,15.61
2022-08-07T06:17:38.532Z,15.70
2022-08-07T06:18:37.521Z,15.79
2022-08-07T06:19:52.253Z,15.93
2022-08-07T06:20:50.240Z,16.00
2022-08-07T06:22:16.733Z,16.15
2022-08-07T06:22:40.206Z,16.18
2022-08-07T06:24:37.748Z,16.34
2022-08-07T06:24:53.504Z,16.52
2022-08-07T06:25:40.769Z,16.68
2022-08-07T06:26:39.979Z,16.62
2022-08-07T06:27:44.390Z,16.75
2022-08-07T06:28:40.388Z,16.83
2022-08-07T06:29:40.048Z,16.98
2022-08-07T06:30:45.396Z,17.10
2022-08-07T06:31:49.904Z,17.07
2022-08-07T06:32:42.056Z,17.00
2022-08-07T06:33:41.035Z,17.06
2022-08-07T06:34:45.173Z,17.08
2022-08-07T06:35:47.610Z,17.17
2022-08-07T06:36:43.037Z,17.17
2022-08-07T06:37:43.603Z,17.11
2022-08-07T06:38:51.148Z,17.14
2022-08-07T06:40:17.435Z,17.10
2022-08-07T06:40:45.719Z,17.10
2022-08-07T06:42:00.677Z,17.04
2022-08-07T06:42:44.047Z,17.03
2022-08-07T06:43:46.107Z,17.07
2022-08-07T06:44:42.752Z,17.08
2022-08-07T06:45:44.212Z,17.06
2022-08-07T06:46:43.014Z,17.06
2022-08-07T06:47:48.033Z,17.10
2022-08-07T06:48:44.463Z,17.17
2022-08-07T06:49:52.450Z,17.28
2022-08-07T06:50:47.970Z,17.20
2022-08-07T06:51:50.142Z,17.28
2022-08-07T06:52:45.098Z,17.43
2022-08-07T06:54:11.778Z,17.43
2022-08-07T06:55:31.492Z,17.54
2022-08-07T06:56:00.472Z,17.64
2022-08-07T06:56:49.527Z,17.66
2022-08-07T06:57:52.106Z,17.76
2022-08-07T07:00:13.970Z,17.91
2022-08-07T07:00:14.841Z,17.79
2022-08-07T07:00:46.476Z,18.33
2022-08-07T07:01:48.830Z,18.59
2022-08-07T07:02:54.613Z,18.86
2022-08-07T07:03:48.250Z,18.68
2022-08-07T07:04:55.102Z,19.14
2022-08-07T07:06:02.840Z,19.55
2022-08-07T07:07:00.179Z,19.91
2022-08-07T07:07:59.880Z,20.21
2022-08-07T07:08:47.963Z,20.68
2022-08-07T07:09:47.150Z,20.77
2022-08-07T07:10:57.034Z,20.69
2022-08-07T07:12:07.848Z,19.93
2022-08-07T07:12:50.225Z,19.39
2022-08-07T07:13:58.264Z,19.11
2022-08-07T07:14:49.038Z,18.74
2022-08-07T07:15:51.772Z,18.52
2022-08-07T07:16:51.162Z,18.43
2022-08-07T07:17:50.363Z,18.43
2022-08-07T07:18:48.806Z,18.34
2022-08-07T07:19:57.460Z,18.29
2022-08-07T07:20:50.551Z,18.28
2022-08-07T07:22:12.318Z,18.37
2022-08-07T07:24:06.342Z,18.40
2022-08-07T07:24:09.133Z,18.39
2022-08-07T07:24:58.507Z,18.42
2022-08-07T07:26:34.132Z,18.46
2022-08-07T07:26:52.574Z,18.44
2022-08-07T07:27:56.071Z,18.46
2022-08-07T07:29:39.318Z,18.49
2022-08-07T07:30:07.486Z,18.67
2022-08-07T07:30:51.920Z,18.80
2022-08-07T07:31:51.051Z,19.18
2022-08-07T07:32:52.062Z,19.61
2022-08-07T07:33:56.435Z,19.91
2022-08-07T07:34:52.512Z,20.28
2022-08-07T07:36:04.004Z,20.79
2022-08-07T07:36:54.122Z,21.06
2022-08-07T07:38:02.274Z,21.09
2022-08-07T07:38:54.226Z,20.84
2022-08-07T07:39:55.395Z,20.62
2022-08-07T07:40:52.565Z,20.38
2022-08-07T07:42:13.693Z,20.38
2022-08-07T07:42:55.604Z,20.31
2022-08-07T07:44:17.917Z,20.21
2022-08-07T07:44:54.164Z,20.03
2022-08-07T07:46:38.023Z,19.86
2022-08-07T07:47:04.241Z,19.91
2022-08-07T07:47:54.781Z,19.83
2022-08-07T07:48:59.870Z,19.83
2022-08-07T07:50:32.964Z,19.87
2022-08-07T07:50:55.078Z,19.95
2022-08-07T07:51:57.421Z,19.98
2022-08-07T07:52:55.061Z,19.84
2022-08-07T07:53:55.613Z,19.63
2022-08-07T07:54:54.829Z,19.57
2022-08-07T07:56:00.495Z,19.60
2022-08-07T07:56:57.481Z,19.76
2022-08-07T07:57:58.457Z,19.63
2022-08-07T07:58:55.558Z,19.57
2022-08-07T07:59:55.797Z,19.65
2022-08-07T08:00:56.563Z,19.68
2022-08-07T08:02:03.602Z,19.73
2022-08-07T08:03:04.570Z,19.79
2022-08-07T08:04:11.128Z,20.03
2022-08-07T08:04:57.752Z,20.00
2022-08-07T08:05:57.565Z,20.00
2022-08-07T08:07:02.688Z,20.18
2022-08-07T08:08:00.742Z,20.28
2022-08-07T08:08:58.067Z,20.51
2022-08-07T08:10:04.789Z,20.42
2022-08-07T08:10:58.950Z,20.31
2022-08-07T08:12:02.506Z,20.24
2022-08-07T08:12:59.905Z,20.24
2022-08-07T08:13:58.615Z,20.06
2022-08-07T08:14:59.568Z,20.08
2022-08-07T08:16:00.581Z,20.03
2022-08-07T08:17:55.980Z,20.09
2022-08-07T08:18:17.223Z,20.08
2022-08-07T08:19:09.552Z,20.25
2022-08-07T08:20:17.916Z,20.35
2022-08-07T08:21:00.661Z,20.27
2022-08-07T08:22:03.343Z,20.38
2022-08-07T08:23:00.102Z,20.39
2022-08-07T08:24:01.290Z,20.31
2022-08-07T08:25:18.691Z,20.42
2022-08-07T08:26:06.659Z,20.35
2022-08-07T08:27:06.002Z,20.28
2022-08-07T08:28:03.873Z,20.24
2022-08-07T08:29:01.197Z,20.30
2022-08-07T08:30:03.836Z,20.13
2022-08-07T08:31:01.477Z,20.25
2022-08-07T08:32:18.386Z,20.42
2022-08-07T08:33:03.012Z,20.65
2022-08-07T08:34:02.006Z,20.71
2022-08-07T08:35:02.135Z,20.72
2022-08-07T08:36:02.337Z,20.64
2022-08-07T08:37:02.529Z,20.49
2022-08-07T08:38:03.446Z,20.41
2022-08-07T08:39:03.032Z,20.38
2022-08-07T08:40:03.223Z,20.28
2022-08-07T08:41:03.593Z,20.20
2022-08-07T08:42:04.075Z,20.23
2022-08-07T08:43:03.710Z,20.10
2022-08-07T08:44:04.603Z,20.16
2022-08-07T08:45:05.083Z,20.24
2022-08-07T08:46:04.595Z,20.18
2022-08-07T08:47:04.501Z,20.28
2022-08-07T08:48:04.720Z,20.27
2022-08-07T08:49:05.198Z,20.24
2022-08-07T08:50:06.066Z,20.28
2022-08-07T08:51:14.269Z,20.41
2022-08-07T08:52:14.293Z,20.35
2022-08-07T08:53:07.609Z,20.41
2022-08-07T08:54:05.836Z,20.51
2022-08-07T08:55:07.798Z,20.58
2022-08-07T08:56:06.135Z,20.62
2022-08-07T08:57:06.360Z,20.71
2022-08-07T08:58:06.521Z,20.77
2022-08-07T08:59:13.800Z,20.77
2022-08-07T09:00:08.583Z,20.64
2022-08-07T09:01:15.148Z,20.64
2022-08-07T09:02:08.698Z,20.76
2022-08-07T09:03:07.702Z,20.83
2022-08-07T09:04:07.600Z,20.68
2022-08-07T09:05:07.692Z,20.66
2022-08-07T09:06:08.592Z,20.62
2022-08-07T09:07:11.133Z,20.76
2022-08-07T09:08:08.268Z,20.71
2022-08-07T09:09:09.556Z,20.72
2022-08-07T09:10:09.580Z,20.76
2022-08-07T09:11:08.809Z,20.76
2022-08-07T09:12:30.148Z,20.81
2022-08-07T09:13:11.072Z,20.79
2022-08-07T09:14:09.654Z,20.89
2022-08-07T09:16:21.617Z,20.91
2022-08-07T09:16:23.001Z,21.06
2022-08-07T09:17:11.013Z,21.23
2022-08-07T09:18:15.701Z,21.17
2022-08-07T09:19:44.759Z,21.14
2022-08-07T09:20:24.992Z,21.02
2022-08-07T09:21:13.870Z,20.90
2022-08-07T09:24:27.262Z,20.83
2022-08-07T09:24:30.374Z,20.80
2022-08-07T09:24:34.081Z,20.86
2022-08-07T09:25:17.452Z,20.87
2022-08-07T09:26:17.228Z,20.76
2022-08-07T09:27:13.495Z,20.68
2022-08-07T09:30:01.390Z,20.71
2022-08-07T09:30:03.416Z,20.65
2022-08-07T09:30:14.011Z,20.54
2022-08-07T09:31:12.642Z,20.65
2022-08-07T09:32:18.482Z,20.59
2022-08-07T09:33:16.666Z,20.61
2022-08-07T09:34:14.130Z,20.65
2022-08-07T09:36:01.327Z,20.64
2022-08-07T09:36:14.446Z,20.66
2022-08-07T09:37:14.110Z,20.81
2022-08-07T09:38:13.882Z,20.71
2022-08-07T09:39:52.504Z,20.84
2022-08-07T09:40:17.914Z,20.95
2022-08-07T09:41:14.391Z,20.81
2022-08-07T09:42:17.301Z,20.84
2022-08-07T09:43:18.016Z,20.95
2022-08-07T09:44:19.137Z,20.99
2022-08-07T09:47:24.253Z,21.14
2022-08-07T09:47:49.910Z,21.21
2022-08-07T09:47:55.117Z,21.24
2022-08-07T09:48:19.190Z,20.98
2022-08-07T09:49:59.734Z,20.96
2022-08-07T09:50:18.930Z,20.91
2022-08-07T09:52:10.099Z,20.93
2022-08-07T09:52:34.057Z,21.04
2022-08-07T09:53:18.633Z,21.05
2022-08-07T09:54:16.734Z,21.13
2022-08-07T09:55:29.384Z,21.04
2022-08-07T09:56:19.695Z,21.04
2022-08-07T09:57:19.109Z,21.14
2022-08-07T09:58:17.416Z,21.09
2022-08-07T09:59:18.863Z,21.19
2022-08-07T10:00:18.833Z,21.27
2022-08-07T10:01:51.081Z,21.17
2022-08-07T10:02:19.606Z,21.23
2022-08-07T10:04:06.372Z,21.19
2022-08-07T10:04:32.544Z,21.32
2022-08-07T10:05:21.264Z,21.36
2022-08-07T10:06:19.846Z,21.59
2022-08-07T10:07:24.575Z,21.83
2022-08-07T10:08:20.624Z,21.94
2022-08-07T10:09:34.206Z,21.98
2022-08-07T10:10:21.938Z,21.98
2022-08-07T10:12:01.915Z,21.74
2022-08-07T10:12:21.899Z,21.48
2022-08-07T10:13:55.003Z,21.38
2022-08-07T10:14:22.987Z,21.41
2022-08-07T10:15:21.626Z,21.39
2022-08-07T10:16:20.727Z,21.44
2022-08-07T10:17:20.847Z,21.59
2022-08-07T10:18:21.050Z,21.57
2022-08-07T10:19:23.111Z,21.56
2022-08-07T10:20:21.979Z,21.64
2022-08-07T10:22:13.979Z,21.72
2022-08-07T10:22:24.892Z,21.79
2022-08-07T10:24:06.777Z,21.90
2022-08-07T10:24:23.314Z,22.04
2022-08-07T10:25:22.761Z,22.06
2022-08-07T10:26:24.681Z,22.10
2022-08-07T10:27:22.974Z,22.17
2022-08-07T10:28:24.134Z,22.04
2022-08-07T10:29:23.271Z,21.88
2022-08-07T10:30:23.401Z,21.88
2022-08-07T10:31:23.654Z,21.75
2022-08-07T10:32:51.681Z,21.90
2022-08-07T10:34:05.769Z,21.75
2022-08-07T10:34:31.795Z,21.78
2022-08-07T10:35:26.116Z,21.74
2022-08-07T10:36:29.867Z,21.60
2022-08-07T10:37:26.364Z,21.60
2022-08-07T10:38:35.914Z,21.78
2022-08-07T10:39:41.298Z,21.78
2022-08-07T10:40:29.942Z,21.71
2022-08-07T10:41:46.289Z,21.69
2022-08-07T10:42:31.412Z,21.59
2022-08-07T10:43:34.192Z,21.72
2022-08-07T10:44:28.342Z,21.81
2022-08-07T10:45:57.783Z,21.83
2022-08-07T10:46:27.370Z,21.71
2022-08-07T10:47:27.159Z,21.51
2022-08-07T10:48:34.591Z,21.66
2022-08-07T10:49:49.474Z,21.78
2022-08-07T10:50:28.626Z,21.90
2022-08-07T10:51:39.138Z,22.10
2022-08-07T10:52:31.736Z,22.32
2022-08-07T10:53:28.620Z,22.41
2022-08-07T10:54:28.738Z,22.54
2022-08-07T10:55:38.590Z,22.57
2022-08-07T10:56:31.331Z,22.72
2022-08-07T10:57:34.484Z,22.74
2022-08-07T10:58:33.000Z,22.75
2022-08-07T10:59:30.502Z,22.72
2022-08-07T11:00:39.240Z,22.71
2022-08-07T11:01:35.190Z,22.64
2022-08-07T11:02:34.062Z,22.57
2022-08-07T11:03:37.884Z,22.71
2022-08-07T11:04:34.664Z,23.02
2022-08-07T11:05:44.814Z,23.19
2022-08-07T11:06:30.993Z,23.11
2022-08-07T11:07:59.468Z,22.89
2022-08-07T11:08:32.133Z,22.74
2022-08-07T11:10:06.976Z,22.49
2022-08-07T11:10:31.833Z,22.43
2022-08-07T11:11:31.014Z,22.27
2022-08-07T11:12:35.405Z,22.37
2022-08-07T11:14:42.402Z,22.32
2022-08-07T11:14:45.419Z,22.57
2022-08-07T11:15:33.148Z,22.69
2022-08-07T11:16:31.977Z,22.89
2022-08-07T11:17:43.489Z,22.77
2022-08-07T11:18:33.372Z,22.68
2022-08-07T11:19:33.133Z,22.56
2022-08-07T11:20:32.696Z,22.37
2022-08-07T11:21:32.936Z,22.52
2022-08-07T11:22:43.953Z,22.62
2022-08-07T11:23:38.605Z,22.54
2022-08-07T11:24:33.560Z,22.53
2022-08-07T11:25:36.121Z,22.65
2022-08-07T11:26:34.896Z,22.57
2022-08-07T11:28:02.343Z,22.46
2022-08-07T11:28:35.337Z,22.28
2022-08-07T11:29:41.842Z,22.25
2022-08-07T11:30:41.462Z,22.32
2022-08-07T11:31:35.805Z,22.50
2022-08-07T11:32:35.637Z,22.46
2022-08-07T11:33:53.673Z,22.60
2022-08-07T11:34:36.650Z,22.77
2022-08-07T11:35:35.581Z,22.83
2022-08-07T11:36:37.647Z,22.99
2022-08-07T11:37:38.683Z,23.22
2022-08-07T11:38:37.136Z,23.35
2022-08-07T11:39:58.834Z,23.43
2022-08-07T11:40:37.628Z,23.46
2022-08-07T11:42:00.414Z,23.53
2022-08-07T11:42:38.064Z,23.58
2022-08-07T11:43:54.183Z,23.57
2022-08-07T11:44:38.658Z,23.52
2022-08-07T11:45:38.518Z,23.34
2022-08-07T11:46:38.619Z,23.24
2022-08-07T11:47:39.044Z,23.17
2022-08-07T11:48:38.882Z,23.23
2022-08-07T11:50:25.468Z,23.20
2022-08-07T11:50:44.543Z,23.23
2022-08-07T11:51:41.464Z,23.08
2022-08-07T11:52:40.165Z,23.29
2022-08-07T11:53:43.318Z,23.50
2022-08-07T11:54:40.655Z,23.76
2022-08-07T11:56:15.503Z,23.90
2022-08-07T11:56:40.354Z,24.07
2022-08-07T11:58:00.614Z,24.31
2022-08-07T11:58:41.174Z,24.34
2022-08-07T12:00:12.505Z,23.97
2022-08-07T12:00:41.649Z,23.57
2022-08-07T12:01:59.697Z,23.53
2022-08-07T12:02:41.436Z,23.12
2022-08-07T12:03:45.519Z,23.08
2022-08-07T12:04:41.653Z,23.08
2022-08-07T12:05:47.388Z,23.23
2022-08-07T12:06:44.860Z,23.31
2022-08-07T12:07:42.503Z,23.27
2022-08-07T12:08:42.649Z,23.67
2022-08-07T12:09:42.151Z,23.76
2022-08-07T12:10:42.191Z,23.98
2022-08-07T12:11:43.538Z,24.16
2022-08-07T12:12:43.129Z,24.01
2022-08-07T12:13:45.075Z,23.79
2022-08-07T12:14:44.402Z,23.68
2022-08-07T12:16:05.133Z,23.58
2022-08-07T12:16:43.818Z,23.47
2022-08-07T12:17:59.756Z,23.27
2022-08-07T12:18:45.573Z,23.19
2022-08-07T12:20:03.960Z,23.17
2022-08-07T12:20:44.551Z,23.27
2022-08-07T12:21:55.648Z,23.26
2022-08-07T12:22:55.848Z,23.34
2022-08-07T12:24:07.599Z,23.32
2022-08-07T12:24:45.446Z,23.40
2022-08-07T12:26:03.250Z,23.46
2022-08-07T12:26:49.019Z,23.47
2022-08-07T12:28:30.764Z,23.58
2022-08-07T12:28:49.815Z,23.80
2022-08-07T12:29:46.499Z,23.77
2022-08-07T12:30:53.135Z,23.71
2022-08-07T12:32:02.033Z,23.76
2022-08-07T12:32:49.128Z,23.82
2022-08-07T12:33:46.300Z,23.80
2022-08-07T12:34:49.465Z,23.85
2022-08-07T12:35:48.163Z,24.02
2022-08-07T12:36:49.503Z,24.08
2022-08-07T12:38:11.731Z,24.29
2022-08-07T12:38:57.692Z,24.59
2022-08-07T12:39:51.392Z,24.82
2022-08-07T12:40:50.459Z,24.83
2022-08-07T12:41:51.392Z,24.71
2022-08-07T12:42:54.946Z,24.75
2022-08-07T12:44:03.503Z,24.45
2022-08-07T12:44:49.509Z,24.08
2022-08-07T12:45:50.320Z,24.04
2022-08-07T12:46:48.904Z,23.90
2022-08-07T12:47:49.376Z,24.02
2022-08-07T12:48:53.070Z,23.85
2022-08-07T12:49:53.283Z,23.79
2022-08-07T12:50:51.192Z,23.50
2022-08-07T12:51:52.721Z,23.70
2022-08-07T12:52:52.386Z,23.76
2022-08-07T12:54:03.304Z,23.79
2022-08-07T12:54:54.689Z,23.68